createdAt,value
2023-02-04T00:01:39.545Z,98.6
2023-02-04T00:07:29.286Z,98.7
2023-02-04T00:13:19.418Z,98.8
2023-02-04T00:19:09.977Z,98.7
2023-02-04T00:25:00.212Z,98.8
2023-02-04T00:30:50.087Z,98.5
2023-02-04T00:36:41.394Z,98.2
2023-02-04T00:42:32.770Z,98.1
2023-02-04T00:48:25.921Z,98.6
2023-02-04T00:54:15.681Z,98.1
2023-02-04T01:00:05.681Z,98.3
2023-02-04T01:05:55.669Z,98.5
2023-02-04T01:11:47.815Z,98.5
2023-02-04T01:17:38.431Z,98.8
2023-02-04T01:23:28.222Z,98.6
2023-02-04T01:29:19.106Z,98.8
2023-02-04T01:35:09.091Z,98.6
2023-02-04T01:40:59.182Z,98.6
2023-02-04T01:46:50.732Z,98.5
2023-02-04T01:52:40.486Z,98.6
2023-02-04T01:58:28.661Z,98.4
2023-02-04T02:04:18.516Z,99.6
2023-02-04T02:10:06.647Z,100
2023-02-04T02:15:56.303Z,100
2023-02-04T02:21:45.047Z,100
2023-02-04T02:27:35.958Z,100
2023-02-04T02:33:26.734Z,100
2023-02-04T02:39:15.293Z,100
2023-02-04T02:45:04.713Z,100
2023-02-04T02:50:53.865Z,100
2023-02-04T02:56:43.031Z,100
2023-02-04T03:02:32.170Z,100
2023-02-04T03:08:20.776Z,100
2023-02-04T03:14:09.059Z,100
2023-02-04T03:19:57.487Z,100
2023-02-04T03:25:45.857Z,100
2023-02-04T03:31:34.534Z,100
2023-02-04T03:37:25.882Z,100
2023-02-04T03:43:16.002Z,100
2023-02-04T03:49:05.741Z,100
2023-02-04T03:54:55.417Z,100
2023-02-04T04:00:46.957Z,100
2023-02-04T04:06:37.578Z,100
2023-02-04T04:12:27.631Z,100
2023-02-04T04:18:16.765Z,100
2023-02-04T04:24:06.626Z,100
2023-02-04T04:29:56.625Z,100
2023-02-04T04:35:46.812Z,100
2023-02-04T04:41:37.170Z,100
2023-02-04T04:47:28.402Z,100
2023-02-04T04:53:18.754Z,100
2023-02-04T04:59:11.732Z,100
2023-02-04T05:05:01.334Z,100
2023-02-04T05:10:52.310Z,100
2023-02-04T05:16:42.804Z,100
2023-02-04T05:22:32.691Z,100
2023-02-04T05:28:21.950Z,100
2023-02-04T05:34:11.927Z,100
2023-02-04T05:40:02.391Z,100
2023-02-04T05:45:53.680Z,100
2023-02-04T05:51:44.187Z,100
2023-02-04T05:57:35.128Z,100
2023-02-04T06:03:26.030Z,100
2023-02-04T06:09:15.825Z,100
2023-02-04T06:15:07.229Z,100
2023-02-04T06:20:59.421Z,100
2023-02-04T06:26:48.794Z,100
2023-02-04T06:32:38.728Z,100
2023-02-04T06:38:34.843Z,100
2023-02-04T06:44:24.878Z,100
2023-02-04T06:50:18.199Z,100
2023-02-04T06:56:10.876Z,100
2023-02-04T07:02:00.458Z,100
2023-02-04T07:07:50.518Z,100
2023-02-04T07:13:41.663Z,100
2023-02-04T07:19:34.138Z,100
2023-02-04T07:25:24.207Z,100
2023-02-04T07:31:14.313Z,100
2023-02-04T07:37:05.934Z,100
2023-02-04T07:42:55.413Z,100
2023-02-04T07:48:46.879Z,100
2023-02-04T07:54:37.242Z,100
2023-02-04T08:00:25.780Z,100
2023-02-04T08:06:16.856Z,100
2023-02-04T08:12:07.451Z,100
2023-02-04T08:17:58.767Z,100
2023-02-04T08:23:49.028Z,100
2023-02-04T08:29:40.193Z,100
2023-02-04T08:35:31.377Z,100
2023-02-04T08:41:21.848Z,100
2023-02-04T08:47:12.027Z,100
2023-02-04T08:53:02.290Z,100
2023-02-04T08:58:52.966Z,100
2023-02-04T09:04:42.825Z,100
2023-02-04T09:10:32.682Z,100
2023-02-04T09:16:23.607Z,100
2023-02-04T09:22:14.923Z,100
2023-02-04T09:28:07.783Z,100
2023-02-04T09:33:58.880Z,100
2023-02-04T09:39:50.014Z,100
2023-02-04T09:45:40.885Z,100
2023-02-04T09:51:34.005Z,100
2023-02-04T09:57:24.845Z,99.9
2023-02-04T10:03:16.665Z,99.9
2023-02-04T10:09:06.826Z,99.2
2023-02-04T10:14:56.132Z,99.7
2023-02-04T10:20:49.605Z,98.8
2023-02-04T10:26:40.313Z,97.3
2023-02-04T10:32:32.290Z,96.6
2023-02-04T10:38:22.232Z,96.6
2023-02-04T10:44:12.741Z,96.2
2023-02-04T10:50:02.827Z,94.3
2023-02-04T10:55:54.611Z,94.1
2023-02-04T11:01:46.110Z,93.5
2023-02-04T11:07:35.281Z,92.6
2023-02-04T11:13:27.816Z,92.7
2023-02-04T11:19:22.934Z,90.7
2023-02-04T11:25:15.506Z,91.4
2023-02-04T11:31:06.459Z,92.8
2023-02-04T11:36:56.003Z,91.5
2023-02-04T11:42:45.563Z,91
2023-02-04T11:48:35.504Z,90.7
2023-02-04T11:54:26.089Z,90.3
2023-02-04T12:00:21.696Z,91.4
2023-02-04T12:06:10.611Z,90.4
2023-02-04T12:12:00.578Z,91.2
2023-02-04T12:17:49.897Z,89.6
2023-02-04T12:23:39.398Z,88.8
2023-02-04T12:29:28.638Z,87.8
2023-02-04T12:35:18.307Z,87.5
2023-02-04T12:41:08.404Z,87.3
2023-02-04T12:47:00.421Z,85.5
2023-02-04T12:52:50.377Z,86.3
2023-02-04T12:58:40.899Z,86.3
2023-02-04T13:04:31.990Z,85.4
2023-02-04T13:10:23.239Z,85.8
2023-02-04T13:16:13.670Z,85.5
2023-02-04T13:22:04.002Z,85.2
2023-02-04T13:27:53.236Z,85.1
2023-02-04T13:33:43.787Z,84.3
2023-02-04T13:39:34.517Z,83.2
2023-02-04T13:45:27.040Z,83.5
2023-02-04T13:51:18.402Z,83.2
2023-02-04T13:57:08.062Z,82.6
2023-02-04T14:02:58.210Z,82.3
2023-02-04T14:08:50.183Z,81.6
2023-02-04T14:14:41.012Z,82
2023-02-04T14:20:33.147Z,80.9
2023-02-04T14:26:26.630Z,80.2
2023-02-04T14:32:17.134Z,79.4
2023-02-04T14:38:10.217Z,80.1
2023-02-04T14:44:00.003Z,80
2023-02-04T14:49:52.911Z,79.3
2023-02-04T14:55:44.798Z,79.4
2023-02-04T15:01:33.895Z,79.4
2023-02-04T15:07:26.851Z,78.2
2023-02-04T15:13:16.229Z,77.6
2023-02-04T15:19:05.681Z,77.5
2023-02-04T15:24:56.467Z,78.3
2023-02-04T15:30:47.836Z,77.4
2023-02-04T15:36:39.955Z,78.7
2023-02-04T15:42:29.415Z,79.3
2023-02-04T15:48:18.866Z,78.1
2023-02-04T15:54:08.575Z,80.1
2023-02-04T15:59:59.755Z,80.5
2023-02-04T16:05:49.958Z,82.4
2023-02-04T16:11:40.389Z,83.2
2023-02-04T16:17:30.364Z,84.3
2023-02-04T16:23:21.541Z,86.5
2023-02-04T16:29:12.201Z,86.7
2023-02-04T16:35:02.470Z,86.6
2023-02-04T16:40:54.506Z,86.8
2023-02-04T16:46:47.207Z,87.6
2023-02-04T16:52:38.322Z,88.2
2023-02-04T16:58:28.164Z,89.5
2023-02-04T17:04:21.052Z,87.9
2023-02-04T17:10:11.780Z,88.8
2023-02-04T17:16:04.472Z,89.3
2023-02-04T17:21:55.235Z,88.2
2023-02-04T17:27:49.384Z,88.4
2023-02-04T17:33:39.816Z,89
2023-02-04T17:39:37.307Z,88.7
2023-02-04T17:45:28.018Z,89.3
2023-02-04T17:51:21.871Z,90.4
2023-02-04T17:57:13.135Z,90.7
2023-02-04T18:03:03.131Z,90.3
2023-02-04T18:08:54.901Z,90.5
2023-02-04T18:14:44.733Z,91.9
2023-02-04T18:20:35.849Z,90.6
2023-02-04T18:26:25.259Z,90.2
2023-02-04T18:32:15.894Z,90.2
2023-02-04T18:38:06.383Z,90.5
2023-02-04T18:43:56.449Z,90.4
2023-02-04T18:49:48.591Z,90.6
2023-02-04T18:55:38.894Z,93.2
2023-02-04T19:01:30.531Z,92
2023-02-04T19:07:22.259Z,91.4
2023-02-04T19:13:13.133Z,91.1
2023-02-04T19:19:03.879Z,90.5
2023-02-04T19:24:53.469Z,90.5
2023-02-04T19:30:43.547Z,90.6
2023-02-04T19:36:34.612Z,90.1
2023-02-04T19:42:29.141Z,90.6
2023-02-04T19:48:20.021Z,91.6
2023-02-04T19:54:10.547Z,91
2023-02-04T20:00:01.299Z,93.2
2023-02-04T20:05:50.193Z,94.1
2023-02-04T20:11:41.979Z,93.8
2023-02-04T20:17:32.182Z,92.5
2023-02-04T20:23:21.047Z,92.4
2023-02-04T20:29:10.129Z,92.9
2023-02-04T20:34:59.470Z,94.2
2023-02-04T20:40:48.792Z,93.3
2023-02-04T20:46:40.959Z,92.4
2023-02-04T20:52:32.125Z,93.4
2023-02-04T20:58:22.375Z,94.8
2023-02-04T21:04:12.261Z,95.4
2023-02-04T21:10:03.348Z,93.6
2023-02-04T21:15:54.064Z,93.3
2023-02-04T21:21:45.253Z,92.5
2023-02-04T21:27:35.651Z,92.7
2023-02-04T21:33:26.044Z,94.3
2023-02-04T21:39:16.132Z,95.1
2023-02-04T21:45:06.770Z,96.2
2023-02-04T21:50:56.956Z,96.1
2023-02-04T21:56:53.689Z,96
2023-02-04T22:02:45.021Z,97.1
2023-02-04T22:08:36.407Z,95.7
2023-02-04T22:14:27.134Z,95.6
2023-02-04T22:20:16.523Z,97.7
2023-02-04T22:26:08.166Z,97.8
2023-02-04T22:31:57.770Z,97.8
2023-02-04T22:37:47.444Z,97.1
2023-02-04T22:43:40.288Z,94.4
2023-02-04T22:49:32.747Z,93.2
2023-02-04T22:55:22.443Z,92.8
2023-02-04T23:01:11.889Z,94.4
2023-02-04T23:07:01.898Z,93.1
2023-02-04T23:12:51.979Z,93.2
2023-02-04T23:18:43.597Z,92.8
2023-02-04T23:24:35.052Z,92.9
2023-02-04T23:30:28.470Z,92.8
2023-02-04T23:36:18.579Z,92.9
2023-02-04T23:42:09.334Z,92.7
2023-02-04T23:48:00.209Z,92.2
2023-02-04T23:53:50.481Z,92.4
2023-02-04T23:59:40.194Z,92.4
